Lockport, Kentucky
Current Conditions -  °F | °C
As of 4:53 AM on Thursday 23 Oct 2014 (Local Time) from KFFT Reporting Station
Overcast Overcast  
Wind Chill: 46°   Ceiling: 2500
Heat Index: 48°   Visibility: 10mi
Dew Point: 38°   Wind: 5mph
Humidity: 68%   Direction: 30°NNE
Pressure: 30.24"   Gusts: NA
Location:  38.44°N, 84.97°W
Report Text: KFFT 230853Z AUTO 03004KT 10SM OVC025 09/03 A3024 RMK AO2 SLP239 T00890033 58000
Loading
Personal Weather Stations






























Interactive Weather Map
Tropical Storm Tracking
New forecast layout! Learn more

10-Day Weather Forecast

Advertisements
Track Severe Weather on mobile